• Join FlightAware (Why Join?)
  • Login
  • US Flag 
07:00AM EST


 

Airport Tracker/Info


-or-


 

Live Flight TrackerFlight Track Log ✈ ASQ5738 ✈ 02-May-2013 ✈ KALB - KIAD

Flight Track Log - Related Links

Times and Time Zones

All times are in EDT time to prevent confusion due to time zone crossing. See the ASQ5738 flight status page for this flight to view local times or setup timezone preferences in your user account.

Time Position Orientation Groundspeed Altitude Reporting Facility
EDT Latitude Longitude Course Direction KTS MPH feet Rate Location/Type
10:23AM 42.7278 -73.8081 194° South 156 180 1,100  Level Boston Center
10:24AM 42.6731 -73.8547 212° Southwest 225 259 4,300 2,400 Climbing Boston Center
10:26AM 42.4826 -74.0766 196° South  Level Estimated
10:26AM 42.7208 -74.0169 292° West 230 265 9,300  Level Boston Center
10:27AM 42.3936 -74.1676 198° South  Level Estimated
10:27AM 42.7803 -74.0950 316° Northwest 264 304 11,000  Level Boston Center
10:28AM 42.3045 -74.2583 194° South  Level Estimated
10:28AM 42.8161 -74.2064 294° West 321 369 12,100  Level Boston Center
10:29AM 42.7950 -74.3417 258° West 357 411 13,900 1,800 Climbing Boston Center
10:30AM 42.7103 -74.4236 215° Southwest 340 391 15,700 1,680 Climbing Boston Center
10:31AM 42.6097 -74.4514 191° South 364 419 17,300 1,020 Climbing Boston Center
10:32AM 42.5081 -74.4200 167° South 356 410 17,800 720 Climbing Boston Center
10:33AM 42.4306 -74.3219 137° Southeast 352 405 18,800 900 Climbing Boston Center
10:34AM 42.3572 -74.2158 133° Southeast 360 414 19,700 840 Climbing Boston Center
10:35AM 42.2797 -74.1042 133° Southeast 376 433 20,500 780 Climbing Boston Center
10:36AM 42.1808 -74.0397 154° Southeast 394 453 21,300 720 Climbing Boston Center
10:38AM 42.0597 -74.0453 182° South 411 473 22,100 720 Climbing Boston Center
10:39AM 41.9386 -74.0672 188° South 417 480 22,900 780 Climbing Boston Center
10:40AM 41.7289 -74.1731 201° Southwest 446 513 24,300 720 Climbing New York Center
10:41AM 41.6147 -74.2311 201° Southwest 446 513 24,900 600 Climbing New York Center
10:42AM 41.5133 -74.2839 201° Southwest 451 519 25,500 660 Climbing New York Center
10:43AM 41.3947 -74.3469 202° Southwest 451 519 26,300 960 Climbing New York Center
10:44AM 41.2658 -74.4089 200° South 456 525 27,500 780 Climbing New York Center
10:45AM 41.1536 -74.4664 201° Southwest 451 519 28,000 240 Climbing New York Center
10:46AM 41.0353 -74.5203 199° South 451 519 28,000  Level New York Center
10:47AM 40.9183 -74.5964 206° Southwest 456 525 28,000  Level New York Center
10:48AM 40.8428 -74.7375 235° Southwest 451 519 28,000 -120 Level New York Center
10:49AM 40.7753 -74.8869 239° Southwest 458 527 27,800 -540 Descending New York Center
10:50AM 40.7094 -75.0364 240° Southwest 471 542 27,000 -840 Descending New York Center
10:51AM 40.6417 -75.1853 239° Southwest 476 548 26,200 -840 Descending New York Center
10:52AM 40.5714 -75.3311 238° Southwest 476 548 25,400 -840 Descending New York Center
10:53AM 40.5053 -75.4767 239° Southwest 476 548 24,600 -1,380 Descending New York Center
10:54AM 40.4392 -75.6194 239° Southwest 469 540 22,700 -1,980 Descending New York Center
10:55AM 40.3725 -75.7675 239° Southwest 469 540 20,700 -1,380 Descending New York Center
10:56AM 40.3039 -75.9067 237° Southwest 469 540 20,000 -420 Descending New York Center
10:57AM 40.2442 -76.0356 239° Southwest 445 512 19,900 -540 Descending New York Center
10:58AM 40.1819 -76.1667 238° Southwest 431 496 19,000 -960 Descending New York Center
10:59AM 40.1197 -76.2950 238° Southwest 425 489 18,100 -780 Descending New York Center
11:01AM 40.0000 -76.5333 237° Southwest 429 494 16,900 -780 Descending Potomac TRACON
11:02AM 39.9500 -76.6500 241° Southwest 423 487 16,100 -960 Descending Potomac TRACON
11:03AM 39.9000 -76.7667 241° Southwest 358 412 15,100 -600 Descending Potomac TRACON
11:04AM 39.8500 -76.8667 237° Southwest 323 372 15,000 -540 Descending Potomac TRACON
11:05AM 39.8000 -76.9667 237° Southwest 317 365 14,100 -1,020 Descending Potomac TRACON
11:06AM 39.7667 -77.0500 243° Southwest 310 357 13,000 -1,200 Descending Potomac TRACON
11:07AM 39.7500 -77.1500 258° West 324 373 11,900 -1,200 Descending Potomac TRACON
11:08AM 39.7500 -77.2667 270° West 311 358 10,700 -960 Descending Potomac TRACON
11:09AM 39.7000 -77.3167 218° Southwest 274 315 10,000 -480 Descending Potomac TRACON
11:10AM 39.6333 -77.3333 191° South 247 284 9,800 -780 Descending Potomac TRACON
11:11AM 39.5667 -77.3500 191° South 234 269 8,500 -900 Descending Potomac TRACON
11:12AM 39.5000 -77.3500 180° South 232 267 8,000 -300 Descending Potomac TRACON
11:13AM 39.4333 -77.3667 191° South 223 257 8,000  Level Potomac TRACON
11:14AM 39.3833 -77.3667 180° South 220 253 8,000  Level Potomac TRACON
11:15AM 39.3167 -77.3667 180° South 225 259 8,000  Level Potomac TRACON
11:16AM 39.2500 -77.3667 180° South 228 262 8,000 -360 Level Potomac TRACON
11:17AM 39.2000 -77.3667 180° South 227 261 7,400 -1,440 Descending Potomac TRACON
11:18AM 39.1333 -77.3500 169° South 224 258 5,300 -1,740 Descending Potomac TRACON
11:19AM 39.0667 -77.3500 180° South 215 247 4,000 -660 Descending Potomac TRACON
11:20AM 39.0167 -77.3500 180° South 198 228 4,000  Level Potomac TRACON
11:21AM 38.9667 -77.3500 180° South 201 231 4,000  Level Potomac TRACON
11:22AM 38.9167 -77.3500 180° South 201 231 4,000 -300 Level Potomac TRACON
11:23AM 38.8500 -77.3667 191° South 202 232 3,400 -540 Descending Potomac TRACON
11:24AM 38.8167 -77.3667 180° South 202 232 3,000 -540 Descending Potomac TRACON
11:25AM 38.8167 -77.4333 270° West 189 217 2,400 -600 Descending Potomac TRACON